createdAt,value
2017-11-12T00:02:08.673Z,3.13
2017-11-12T00:04:36.963Z,6.60
2017-11-12T00:07:05.272Z,4.37
2017-11-12T00:09:33.568Z,3.00
2017-11-12T00:12:01.882Z,3.80
2017-11-12T00:14:30.164Z,3.63
2017-11-12T00:16:58.483Z,3.33
2017-11-12T00:19:26.795Z,2.63
2017-11-12T00:21:55.149Z,2.90
2017-11-12T00:24:23.436Z,6.13
2017-11-12T00:26:51.725Z,11.93
2017-11-12T00:29:20.168Z,5.20
2017-11-12T00:31:49.235Z,5.87
2017-11-12T00:34:17.567Z,7.60
2017-11-12T00:36:45.890Z,5.13
2017-11-12T00:39:14.180Z,4.40
2017-11-12T00:41:42.505Z,3.93
2017-11-12T00:44:11.727Z,3.53
2017-11-12T00:46:40.054Z,3.03
2017-11-12T00:49:09.108Z,6.40
2017-11-12T00:51:37.445Z,4.13
2017-11-12T00:54:05.741Z,4.63
2017-11-12T00:56:34.062Z,7.93
2017-11-12T00:59:02.392Z,4.80
2017-11-12T01:01:30.726Z,4.93
2017-11-12T01:03:59.029Z,5.87
2017-11-12T01:06:27.309Z,4.43
2017-11-12T01:08:55.624Z,4.53
2017-11-12T01:11:23.916Z,6.40
2017-11-12T01:13:52.223Z,3.73
2017-11-12T01:16:20.501Z,5.73
2017-11-12T01:18:48.820Z,4.40
2017-11-12T01:21:18.535Z,5.10
2017-11-12T01:23:46.837Z,3.97
2017-11-12T01:26:15.120Z,8.97
2017-11-12T01:28:43.453Z,5.10
2017-11-12T01:31:11.765Z,6.00
2017-11-12T01:33:40.058Z,2.93
2017-11-12T01:36:08.369Z,7.07
2017-11-12T01:38:36.678Z,3.93
2017-11-12T01:41:06.009Z,5.10
2017-11-12T01:43:35.097Z,4.93
2017-11-12T01:46:04.147Z,4.40
2017-11-12T01:48:32.438Z,4.37
2017-11-12T01:51:00.758Z,8.73
2017-11-12T01:53:29.032Z,6.47
2017-11-12T01:55:57.354Z,7.50
2017-11-12T01:58:25.662Z,6.93
2017-11-12T02:00:54.712Z,5.37
2017-11-12T02:03:23.017Z,5.10
2017-11-12T02:05:51.305Z,4.40
2017-11-12T02:08:20.017Z,5.33
2017-11-12T02:10:48.303Z,9.17
2017-11-12T02:13:17.633Z,8.00
2017-11-12T02:15:45.946Z,4.80
2017-11-12T02:18:15.006Z,11.77
2017-11-12T02:20:43.330Z,5.90
2017-11-12T02:23:12.390Z,10.63
2017-11-12T02:25:41.090Z,7.10
2017-11-12T02:28:09.382Z,4.70
2017-11-12T02:30:37.685Z,4.27
2017-11-12T02:33:06.017Z,4.33
2017-11-12T02:35:35.489Z,10.03
2017-11-12T02:38:03.789Z,13.13
2017-11-12T02:40:32.103Z,11.43
2017-11-12T02:43:01.173Z,12.93
2017-11-12T02:45:29.473Z,10.27
2017-11-12T02:47:57.788Z,9.67
2017-11-12T02:50:26.846Z,10.83
2017-11-12T02:52:55.168Z,7.73
2017-11-12T02:55:23.448Z,6.07
2017-11-12T02:57:51.757Z,7.60
2017-11-12T03:00:20.670Z,7.27
2017-11-12T03:02:49.756Z,18.23
2017-11-12T03:05:18.848Z,10.50
2017-11-12T03:07:47.157Z,13.23
2017-11-12T03:10:18.206Z,9.80
2017-11-12T03:12:46.516Z,18.03
2017-11-12T03:15:15.569Z,14.47
2017-11-12T03:17:43.901Z,15.27
2017-11-12T03:20:12.973Z,16.90
2017-11-12T03:22:41.268Z,13.27
2017-11-12T03:25:09.592Z,10.93
2017-11-12T03:27:39.097Z,7.83
2017-11-12T03:30:07.400Z,17.73
2017-11-12T03:32:36.497Z,13.80
2017-11-12T03:35:04.785Z,14.30
2017-11-12T03:37:33.072Z,9.10
2017-11-12T03:40:02.900Z,12.80
2017-11-12T03:42:31.233Z,10.40
2017-11-12T03:44:59.532Z,9.63
2017-11-12T03:47:27.816Z,6.70
2017-11-12T03:49:56.239Z,7.53
2017-11-12T03:52:24.523Z,11.77
2017-11-12T03:54:52.828Z,10.07
2017-11-12T03:57:21.317Z,9.20
2017-11-12T03:59:49.612Z,9.70
2017-11-12T04:02:17.922Z,9.63
2017-11-12T04:04:47.001Z,5.87
2017-11-12T04:07:16.213Z,6.00
2017-11-12T04:09:44.521Z,8.50
2017-11-12T04:12:13.753Z,7.70
2017-11-12T04:14:42.914Z,15.50
2017-11-12T04:17:12.981Z,10.43
2017-11-12T04:19:42.072Z,7.60
2017-11-12T04:22:10.397Z,14.80
2017-11-12T04:24:38.713Z,6.87
2017-11-12T04:27:08.281Z,10.17
2017-11-12T04:29:36.564Z,9.00
2017-11-12T04:32:04.882Z,8.73
2017-11-12T04:34:33.176Z,9.30
2017-11-12T04:37:01.455Z,14.17
2017-11-12T04:39:29.769Z,9.23
2017-11-12T04:41:58.072Z,10.00
2017-11-12T04:44:26.365Z,8.73
2017-11-12T04:46:55.554Z,5.50
2017-11-12T04:49:23.839Z,11.53
2017-11-12T04:51:52.164Z,7.60
2017-11-12T04:54:20.484Z,8.77
2017-11-12T04:56:49.586Z,8.03
2017-11-12T04:59:17.873Z,9.10
2017-11-12T05:01:47.938Z,8.53
2017-11-12T05:04:16.392Z,11.50
2017-11-12T05:06:44.689Z,15.83
2017-11-12T05:09:12.980Z,11.20
2017-11-12T05:11:41.299Z,8.77
2017-11-12T05:14:09.596Z,8.80
2017-11-12T05:16:39.836Z,10.60
2017-11-12T05:19:09.081Z,14.67
2017-11-12T05:21:37.383Z,8.23
2017-11-12T05:24:05.701Z,5.83
2017-11-12T05:26:35.555Z,15.80
2017-11-12T05:29:03.874Z,8.67
2017-11-12T05:31:32.153Z,8.57
2017-11-12T05:34:00.494Z,12.27
2017-11-12T05:36:29.544Z,9.90
2017-11-12T05:38:57.868Z,10.23
2017-11-12T05:41:26.158Z,11.17
2017-11-12T05:43:54.456Z,11.63
2017-11-12T05:46:23.544Z,8.37
2017-11-12T05:48:51.821Z,11.70
2017-11-12T05:51:20.116Z,19.73
2017-11-12T05:53:48.440Z,14.17
2017-11-12T05:56:18.066Z,11.50
2017-11-12T05:58:47.125Z,19.10
2017-11-12T06:01:15.496Z,14.63
2017-11-12T06:03:43.793Z,15.83
2017-11-12T06:06:13.421Z,13.70
2017-11-12T06:08:41.744Z,13.60
2017-11-12T06:11:10.045Z,21.23
2017-11-12T06:13:39.112Z,11.90
2017-11-12T06:16:08.197Z,9.07
2017-11-12T06:18:36.510Z,12.27
2017-11-12T06:21:04.797Z,13.67
2017-11-12T06:23:33.113Z,12.67
2017-11-12T06:26:02.908Z,13.73
2017-11-12T06:28:31.245Z,12.67
2017-11-12T06:31:00.336Z,13.23
2017-11-12T06:33:29.243Z,15.87
2017-11-12T06:35:57.605Z,15.30
2017-11-12T06:38:25.923Z,10.17
2017-11-12T06:40:54.989Z,12.90
2017-11-12T06:43:23.297Z,13.03
2017-11-12T06:45:52.352Z,12.37
2017-11-12T06:48:20.666Z,13.17
2017-11-12T06:50:49.022Z,16.10
2017-11-12T06:53:18.122Z,17.70
2017-11-12T06:55:46.443Z,17.57
2017-11-12T06:58:14.741Z,15.43
2017-11-12T07:00:43.060Z,16.47
2017-11-12T07:03:11.373Z,18.90
2017-11-12T07:05:39.665Z,25.47
2017-11-12T07:08:08.768Z,15.43
2017-11-12T07:10:37.056Z,18.40
2017-11-12T07:13:05.344Z,10.70
2017-11-12T07:15:33.673Z,12.20
2017-11-12T07:18:01.966Z,11.37
2017-11-12T07:20:30.253Z,10.20
2017-11-12T07:22:58.589Z,12.80
2017-11-12T07:25:27.705Z,11.80
2017-11-12T07:27:56.037Z,15.80
2017-11-12T07:30:24.349Z,13.90
2017-11-12T07:32:52.684Z,16.33
2017-11-12T07:35:20.972Z,12.63
2017-11-12T07:37:49.261Z,15.57
2017-11-12T07:40:17.713Z,15.90
2017-11-12T07:42:46.953Z,17.30
2017-11-12T07:45:15.302Z,18.27
2017-11-12T07:47:43.646Z,12.80
2017-11-12T07:50:11.936Z,15.10
2017-11-12T07:52:43.473Z,15.30
2017-11-12T07:55:11.776Z,22.70
2017-11-12T07:57:40.064Z,16.07
2017-11-12T08:00:08.393Z,17.20
2017-11-12T08:02:36.716Z,17.83
2017-11-12T08:05:05.040Z,14.93
2017-11-12T08:07:33.367Z,12.57
2017-11-12T08:10:01.866Z,14.90
2017-11-12T08:12:30.157Z,11.30
2017-11-12T08:14:58.471Z,13.10
2017-11-12T08:17:27.222Z,7.97
2017-11-12T08:19:56.278Z,12.90
2017-11-12T08:22:24.570Z,10.33
2017-11-12T08:24:52.904Z,9.90
2017-11-12T08:27:21.964Z,12.27
2017-11-12T08:29:51.256Z,9.90
2017-11-12T08:32:19.578Z,10.80
2017-11-12T08:34:47.865Z,9.30
2017-11-12T08:37:16.161Z,10.93
2017-11-12T08:39:45.425Z,9.30
2017-11-12T08:42:13.720Z,19.13
2017-11-12T08:44:42.057Z,12.30
2017-11-12T08:47:10.374Z,11.03
2017-11-12T08:49:39.454Z,10.73
2017-11-12T08:52:08.518Z,12.57
2017-11-12T08:54:36.851Z,15.00
2017-11-12T08:57:05.138Z,7.70
2017-11-12T08:59:33.641Z,7.40
2017-11-12T09:02:01.944Z,7.43
2017-11-12T09:04:30.290Z,13.93
2017-11-12T09:06:59.021Z,9.77
2017-11-12T09:09:27.309Z,14.47
2017-11-12T09:11:55.597Z,12.03
2017-11-12T09:14:24.542Z,11.37
2017-11-12T09:16:52.862Z,11.87
2017-11-12T09:19:21.149Z,12.23
2017-11-12T09:21:49.472Z,5.93
2017-11-12T09:24:17.802Z,9.03
2017-11-12T09:26:46.094Z,9.13
2017-11-12T09:29:14.440Z,12.67
2017-11-12T09:31:42.768Z,14.30
2017-11-12T09:34:11.085Z,7.50
2017-11-12T09:36:39.371Z,13.93
2017-11-12T09:39:07.685Z,13.73
2017-11-12T09:41:36.001Z,7.10
2017-11-12T09:44:04.316Z,6.13
2017-11-12T09:46:32.633Z,8.20
2017-11-12T09:49:00.921Z,8.07
2017-11-12T09:51:29.219Z,6.07
2017-11-12T09:53:57.536Z,7.17
2017-11-12T09:56:25.908Z,8.27
2017-11-12T09:58:54.246Z,8.40
2017-11-12T10:01:23.299Z,7.20
2017-11-12T10:03:51.600Z,9.97
2017-11-12T10:06:19.911Z,5.87
2017-11-12T10:08:49.795Z,6.63
2017-11-12T10:11:18.080Z,10.80
2017-11-12T10:13:46.413Z,5.47
2017-11-12T10:16:14.720Z,4.43
2017-11-12T10:18:43.105Z,6.43
2017-11-12T10:21:12.152Z,3.93
2017-11-12T10:23:40.460Z,8.47
2017-11-12T10:26:08.789Z,8.00
2017-11-12T10:28:37.845Z,6.10
2017-11-12T10:31:06.132Z,7.23
2017-11-12T10:33:34.833Z,4.13
2017-11-12T10:36:03.111Z,4.17
2017-11-12T10:38:31.404Z,8.13
2017-11-12T10:40:59.717Z,16.70
2017-11-12T10:43:29.477Z,9.43
2017-11-12T10:45:57.836Z,3.17
2017-11-12T10:48:26.147Z,4.73
2017-11-12T10:50:54.473Z,5.13
2017-11-12T10:53:22.767Z,5.90
2017-11-12T10:55:51.066Z,5.27
2017-11-12T10:58:19.394Z,4.83
2017-11-12T11:00:47.715Z,4.60
2017-11-12T11:03:16.769Z,3.57
2017-11-12T11:05:45.092Z,4.53
2017-11-12T11:08:13.405Z,7.03
2017-11-12T11:10:42.566Z,7.13
2017-11-12T11:13:11.407Z,9.03
2017-11-12T11:15:40.500Z,4.50
2017-11-12T11:18:08.788Z,3.70
2017-11-12T11:20:38.825Z,4.20
2017-11-12T11:23:07.140Z,5.93
2017-11-12T11:25:35.444Z,4.60
2017-11-12T11:28:03.726Z,4.20
2017-11-12T11:30:32.138Z,6.70
2017-11-12T11:33:00.443Z,6.80
2017-11-12T11:35:28.733Z,4.93
2017-11-12T11:37:57.064Z,3.43
2017-11-12T11:40:26.137Z,5.60
2017-11-12T11:42:54.453Z,5.80
2017-11-12T11:45:24.436Z,7.73
2017-11-12T11:47:52.729Z,4.67
2017-11-12T11:50:21.016Z,4.80
2017-11-12T11:52:49.325Z,3.77
2017-11-12T11:55:17.619Z,8.50
2017-11-12T11:57:45.989Z,4.40
2017-11-12T12:00:14.336Z,4.20
2017-11-12T12:02:42.644Z,6.10
2017-11-12T12:05:10.937Z,1.83
2017-11-12T12:07:39.273Z,5.03
2017-11-12T12:10:07.584Z,3.20
2017-11-12T12:12:35.864Z,5.27
2017-11-12T12:15:04.942Z,6.27
2017-11-12T12:17:33.233Z,3.77
2017-11-12T12:20:01.732Z,2.40
2017-11-12T12:22:30.016Z,4.87
2017-11-12T12:24:58.332Z,3.33
2017-11-12T12:27:27.401Z,4.13
2017-11-12T12:29:55.756Z,7.20
2017-11-12T12:32:24.080Z,5.17
2017-11-12T12:34:52.395Z,10.50
2017-11-12T12:37:21.482Z,4.40
2017-11-12T12:39:49.881Z,5.10
2017-11-12T12:42:18.176Z,5.23
2017-11-12T12:44:46.508Z,4.20
2017-11-12T12:47:15.824Z,2.43
2017-11-12T12:49:44.137Z,4.40
2017-11-12T12:52:12.428Z,5.83
2017-11-12T12:54:40.840Z,5.17
2017-11-12T12:57:09.119Z,4.20
2017-11-12T12:59:37.436Z,5.27
2017-11-12T13:02:05.737Z,5.87
2017-11-12T13:04:34.824Z,4.10
2017-11-12T13:07:03.112Z,3.00
2017-11-12T13:09:31.395Z,6.50
2017-11-12T13:11:59.712Z,3.43
2017-11-12T13:14:28.034Z,4.40
2017-11-12T13:16:56.350Z,8.70
2017-11-12T13:19:24.768Z,6.20
2017-11-12T13:21:53.051Z,4.07
2017-11-12T13:24:21.339Z,8.13
2017-11-12T13:26:49.645Z,5.83
2017-11-12T13:29:17.965Z,4.73
2017-11-12T13:31:46.253Z,7.90
2017-11-12T13:34:14.569Z,1.93
2017-11-12T13:36:42.849Z,4.40
2017-11-12T13:39:11.341Z,8.63
2017-11-12T13:41:39.664Z,5.67
2017-11-12T13:44:07.969Z,7.03
2017-11-12T13:46:36.252Z,5.10
2017-11-12T13:49:06.826Z,3.60
2017-11-12T13:51:35.868Z,2.90
2017-11-12T13:54:04.152Z,8.40
2017-11-12T13:56:32.461Z,7.60
2017-11-12T13:59:00.741Z,6.10
2017-11-12T14:01:29.052Z,6.00
2017-11-12T14:03:57.336Z,7.90
2017-11-12T14:06:25.652Z,4.90
2017-11-12T14:08:54.741Z,5.13
2017-11-12T14:11:23.127Z,5.33
2017-11-12T14:13:51.415Z,6.13
2017-11-12T14:16:19.815Z,9.53
2017-11-12T14:18:48.110Z,7.27
2017-11-12T14:21:16.474Z,13.00
2017-11-12T14:23:45.004Z,6.53
2017-11-12T14:26:14.117Z,7.60
2017-11-12T14:28:43.213Z,8.97
2017-11-12T14:31:11.498Z,7.73
2017-11-12T14:33:39.811Z,6.20
2017-11-12T14:36:08.877Z,10.27
2017-11-12T14:38:37.161Z,8.87
2017-11-12T14:41:05.476Z,7.37
2017-11-12T14:43:33.792Z,11.00
2017-11-12T14:46:02.846Z,8.20
2017-11-12T14:48:31.156Z,5.40
2017-11-12T14:50:59.437Z,4.10
2017-11-12T14:53:27.751Z,5.50
2017-11-12T14:55:56.039Z,5.43
2017-11-12T14:58:24.364Z,7.53
2017-11-12T15:00:52.672Z,7.53
2017-11-12T15:03:20.997Z,6.80
2017-11-12T15:05:49.480Z,6.30
2017-11-12T15:08:17.766Z,3.33
2017-11-12T15:10:46.057Z,3.03
2017-11-12T15:13:14.358Z,4.63
2017-11-12T15:15:42.641Z,8.80
2017-11-12T15:18:10.945Z,3.43
2017-11-12T15:20:39.224Z,8.23
2017-11-12T15:23:07.549Z,2.73
2017-11-12T15:25:35.828Z,3.73
2017-11-12T15:28:04.899Z,5.57
2017-11-12T15:30:33.181Z,2.30
2017-11-12T15:33:01.488Z,10.40
2017-11-12T15:35:29.768Z,9.40
2017-11-12T15:37:58.080Z,5.53
2017-11-12T15:40:26.361Z,2.80
2017-11-12T15:42:56.228Z,2.93
2017-11-12T15:45:24.513Z,3.50
2017-11-12T15:47:52.795Z,6.23
2017-11-12T15:50:21.096Z,6.47
2017-11-12T15:52:49.409Z,8.57
2017-11-12T15:55:17.687Z,7.90
2017-11-12T15:57:46.032Z,9.00
2017-11-12T16:00:15.425Z,7.17
2017-11-12T16:02:43.746Z,7.10
2017-11-12T16:05:12.824Z,6.20
2017-11-12T16:07:41.141Z,8.87
2017-11-12T16:10:10.196Z,18.77
2017-11-12T16:12:38.522Z,6.63
2017-11-12T16:15:08.340Z,7.80
2017-11-12T16:17:36.629Z,6.33
2017-11-12T16:20:04.946Z,6.90
2017-11-12T16:22:33.991Z,5.73
2017-11-12T16:25:02.361Z,10.07
2017-11-12T16:27:30.652Z,15.83
2017-11-12T16:29:58.941Z,9.00
2017-11-12T16:32:28.249Z,6.97
2017-11-12T16:34:56.555Z,9.80
2017-11-12T16:37:24.890Z,11.13
2017-11-12T16:39:53.272Z,13.30
2017-11-12T16:42:21.584Z,10.47
2017-11-12T16:44:50.634Z,12.83
2017-11-12T16:47:18.940Z,10.70
2017-11-12T16:49:47.221Z,5.27
2017-11-12T16:52:15.542Z,6.20
2017-11-12T16:54:43.844Z,12.70
2017-11-12T16:57:12.936Z,6.90
2017-11-12T16:59:41.221Z,5.50
2017-11-12T17:02:09.520Z,4.43
2017-11-12T17:04:37.805Z,4.73
2017-11-12T17:07:07.626Z,7.87
2017-11-12T17:09:35.917Z,16.60
2017-11-12T17:12:04.209Z,18.50
2017-11-12T17:14:32.524Z,17.10
2017-11-12T17:17:01.585Z,17.13
2017-11-12T17:19:29.892Z,9.47
2017-11-12T17:21:58.168Z,12.40
2017-11-12T17:24:26.486Z,6.23
2017-11-12T17:26:55.532Z,10.10
2017-11-12T17:29:23.855Z,8.30
2017-11-12T17:31:52.128Z,6.07
2017-11-12T17:34:20.441Z,7.83
2017-11-12T17:36:48.724Z,8.17
2017-11-12T17:39:17.124Z,8.47
2017-11-12T17:41:45.412Z,8.37
2017-11-12T17:44:14.492Z,5.73
2017-11-12T17:46:42.777Z,5.27
2017-11-12T17:49:11.201Z,15.60
2017-11-12T17:51:39.488Z,7.77
2017-11-12T17:54:07.769Z,7.37
2017-11-12T17:56:36.067Z,8.20
2017-11-12T17:59:04.381Z,8.57
2017-11-12T18:01:33.433Z,7.23
2017-11-12T18:04:01.752Z,9.93
2017-11-12T18:06:30.040Z,11.20
2017-11-12T18:08:58.337Z,8.60
2017-11-12T18:11:26.641Z,9.87
2017-11-12T18:13:55.721Z,6.20
2017-11-12T18:16:24.002Z,8.87
2017-11-12T18:18:52.316Z,7.00
2017-11-12T18:21:20.605Z,7.63
2017-11-12T18:23:48.926Z,6.87
2017-11-12T18:26:17.213Z,6.77
2017-11-12T18:28:46.261Z,5.50
2017-11-12T18:31:14.561Z,5.70
2017-11-12T18:33:42.876Z,6.53
2017-11-12T18:36:11.930Z,6.33
2017-11-12T18:38:40.248Z,9.07
2017-11-12T18:41:08.548Z,8.07
2017-11-12T18:43:36.885Z,6.10
2017-11-12T18:46:07.089Z,8.57
2017-11-12T18:48:36.145Z,7.90
2017-11-12T18:51:04.463Z,7.20
2017-11-12T18:53:32.744Z,9.57
2017-11-12T18:56:02.980Z,6.43
2017-11-12T18:58:31.868Z,6.07
2017-11-12T19:01:05.787Z,10.27
2017-11-12T19:03:35.717Z,10.77
2017-11-12T19:06:09.741Z,3.87
2017-11-12T19:08:38.708Z,5.90
2017-11-12T19:11:06.988Z,7.37
2017-11-12T19:13:36.153Z,5.87
2017-11-12T19:16:04.460Z,6.43
2017-11-12T19:18:33.664Z,4.43
2017-11-12T19:21:02.425Z,8.23
2017-11-12T19:23:31.648Z,7.10
2017-11-12T19:26:03.940Z,7.17
2017-11-12T19:28:42.170Z,6.70
2017-11-12T19:31:10.506Z,3.70
2017-11-12T19:33:39.584Z,5.00
2017-11-12T19:36:07.874Z,6.13
2017-11-12T19:38:36.200Z,7.10
2017-11-12T19:41:04.492Z,6.60
2017-11-12T19:43:32.764Z,5.70
2017-11-12T19:46:01.856Z,6.97
2017-11-12T19:48:30.144Z,6.30
2017-11-12T19:50:58.627Z,7.87
2017-11-12T19:53:26.905Z,9.40
2017-11-12T19:55:55.197Z,10.33
2017-11-12T19:58:23.520Z,7.20
2017-11-12T20:00:52.578Z,8.73
2017-11-12T20:03:20.898Z,9.60
2017-11-12T20:05:49.247Z,8.20
2017-11-12T20:08:17.531Z,6.50
2017-11-12T20:10:45.817Z,5.73
2017-11-12T20:13:14.369Z,5.00
2017-11-12T20:15:42.654Z,4.53
2017-11-12T20:18:12.456Z,4.60
2017-11-12T20:20:40.778Z,4.43
2017-11-12T20:23:09.076Z,5.53
2017-11-12T20:25:38.258Z,8.83
2017-11-12T20:28:06.541Z,5.43
2017-11-12T20:30:34.845Z,5.67
2017-11-12T20:33:03.180Z,4.47
2017-11-12T20:35:31.473Z,6.97
2017-11-12T20:37:59.757Z,7.90
2017-11-12T20:40:28.076Z,7.20
2017-11-12T20:42:56.381Z,5.70
2017-11-12T20:45:24.664Z,3.93
2017-11-12T20:47:52.973Z,5.83
2017-11-12T20:50:21.264Z,4.67
2017-11-12T20:52:49.696Z,7.57
2017-11-12T20:55:17.984Z,6.13
2017-11-12T20:57:46.265Z,8.60
2017-11-12T21:00:14.584Z,4.77
2017-11-12T21:02:42.916Z,6.77
2017-11-12T21:08:13.072Z,7.27
2017-11-12T21:10:41.360Z,11.33
2017-11-12T21:13:09.789Z,5.60
2017-11-12T21:15:38.841Z,13.37
2017-11-12T21:18:07.132Z,5.33
2017-11-12T21:20:41.264Z,6.47
2017-11-12T21:23:19.485Z,6.03
2017-11-12T21:25:47.859Z,7.73
2017-11-12T21:28:16.616Z,11.13
2017-11-12T21:30:45.656Z,4.70
2017-11-12T21:33:14.693Z,7.07
2017-11-12T21:38:45.301Z,14.77
2017-11-12T21:41:14.361Z,10.83
2017-11-12T21:43:42.682Z,7.43
2017-11-12T21:46:10.960Z,8.10
2017-11-12T21:48:39.316Z,5.67
2017-11-12T21:51:07.605Z,9.57
2017-11-12T21:53:35.891Z,8.80
2017-11-12T21:56:04.196Z,8.60
2017-11-12T21:58:32.496Z,15.73
2017-11-12T22:01:00.787Z,6.60
2017-11-12T22:03:29.097Z,8.10
2017-11-12T22:05:57.376Z,8.40
2017-11-12T22:08:25.679Z,16.40
2017-11-12T22:10:53.997Z,9.03
2017-11-12T22:13:22.290Z,9.53
2017-11-12T22:15:50.716Z,6.73
2017-11-12T22:18:19.013Z,9.90
2017-11-12T22:20:47.329Z,15.60
2017-11-12T22:23:15.625Z,10.00
2017-11-12T22:25:43.955Z,7.10
2017-11-12T22:28:12.302Z,12.67
2017-11-12T22:30:41.353Z,6.53
2017-11-12T22:33:09.772Z,7.03
2017-11-12T22:35:38.089Z,6.90
2017-11-12T22:38:06.369Z,8.50
2017-11-12T22:40:34.657Z,11.63
2017-11-12T22:43:03.073Z,8.57
2017-11-12T22:45:32.137Z,11.20
2017-11-12T22:48:00.426Z,6.27
2017-11-12T22:50:28.763Z,7.53
2017-11-12T22:52:57.812Z,12.77
2017-11-12T22:55:26.102Z,6.37
2017-11-12T22:57:54.424Z,10.50
2017-11-12T23:00:22.777Z,6.33
2017-11-12T23:02:51.060Z,5.60
2017-11-12T23:05:19.345Z,6.90
2017-11-12T23:07:47.697Z,12.03
2017-11-12T23:10:17.614Z,6.40
2017-11-12T23:12:45.890Z,7.00
2017-11-12T23:15:14.593Z,6.37
2017-11-12T23:17:42.872Z,7.57
2017-11-12T23:20:11.167Z,7.43
2017-11-12T23:22:39.472Z,6.87
2017-11-12T23:25:07.752Z,7.30
2017-11-12T23:27:36.833Z,4.63
2017-11-12T23:30:05.125Z,6.80
2017-11-12T23:32:33.430Z,7.63
2017-11-12T23:35:01.711Z,7.30
2017-11-12T23:37:30.033Z,7.23
2017-11-12T23:39:59.104Z,5.73
2017-11-12T23:42:27.421Z,5.63
2017-11-12T23:44:55.713Z,5.33
2017-11-12T23:47:24.155Z,5.07
2017-11-12T23:49:52.442Z,5.43
2017-11-12T23:52:20.733Z,5.93
2017-11-12T23:54:49.395Z,8.87
2017-11-12T23:57:18.445Z,7.60
2017-11-12T23:59:46.736Z,6.00
